sensor_id;sensor_type;location;lat;lon;timestamp;temperature;humidity
68648;SHT31;55632;51.962;16.116;2023-01-29T00:01:17;0.29;78.87
68648;SHT31;55632;51.962;16.116;2023-01-29T00:06:18;0.22;78.86
68648;SHT31;55632;51.962;16.116;2023-01-29T00:11:19;0.17;78.87
68648;SHT31;55632;51.962;16.116;2023-01-29T00:16:20;0.11;78.95
68648;SHT31;55632;51.962;16.116;2023-01-29T00:21:21;0.11;79.00
68648;SHT31;55632;51.962;16.116;2023-01-29T00:26:22;0.07;79.02
68648;SHT31;55632;51.962;16.116;2023-01-29T00:31:24;0.04;79.09
68648;SHT31;55632;51.962;16.116;2023-01-29T00:36:25;0.00;79.02
68648;SHT31;55632;51.962;16.116;2023-01-29T00:41:28;-0.11;79.06
68648;SHT31;55632;51.962;16.116;2023-01-29T00:46:49;-0.18;79.06
68648;SHT31;55632;51.962;16.116;2023-01-29T00:51:49;-0.27;79.11
68648;SHT31;55632;51.962;16.116;2023-01-29T00:57:09;-0.34;79.15
68648;SHT31;55632;51.962;16.116;2023-01-29T01:02:11;-0.40;79.25
68648;SHT31;55632;51.962;16.116;2023-01-29T01:07:31;-0.50;79.38
68648;SHT31;55632;51.962;16.116;2023-01-29T01:12:32;-0.52;79.41
68648;SHT31;55632;51.962;16.116;2023-01-29T01:17:32;-0.57;79.51
68648;SHT31;55632;51.962;16.116;2023-01-29T01:22:33;-0.62;79.59
68648;SHT31;55632;51.962;16.116;2023-01-29T01:27:35;-0.66;79.65
68648;SHT31;55632;51.962;16.116;2023-01-29T01:32:41;-0.66;79.73
68648;SHT31;55632;51.962;16.116;2023-01-29T01:37:42;-0.66;79.82
68648;SHT31;55632;51.962;16.116;2023-01-29T01:42:44;-0.66;79.79
68648;SHT31;55632;51.962;16.116;2023-01-29T01:47:53;-0.72;79.76
68648;SHT31;55632;51.962;16.116;2023-01-29T01:52:59;-0.76;79.77
68648;SHT31;55632;51.962;16.116;2023-01-29T01:58:07;-0.80;79.87
68648;SHT31;55632;51.962;16.116;2023-01-29T02:03:10;-0.89;79.89
68648;SHT31;55632;51.962;16.116;2023-01-29T02:14:10;-0.96;80.04
68648;SHT31;55632;51.962;16.116;2023-01-29T02:30:05;-1.10;80.34
68648;SHT31;55632;51.962;16.116;2023-01-29T02:40:57;-1.17;80.47
68648;SHT31;55632;51.962;16.116;2023-01-29T02:46:29;-1.21;80.51
68648;SHT31;55632;51.962;16.116;2023-01-29T02:56:53;-1.28;80.68
68648;SHT31;55632;51.962;16.116;2023-01-29T03:01:59;-1.30;80.73
68648;SHT31;55632;51.962;16.116;2023-01-29T03:07:09;-1.34;80.87
68648;SHT31;55632;51.962;16.116;2023-01-29T03:12:33;-1.35;80.95
68648;SHT31;55632;51.962;16.116;2023-01-29T03:18:26;-1.37;81.02
68648;SHT31;55632;51.962;16.116;2023-01-29T03:23:12;-1.38;81.15
68648;SHT31;55632;51.962;16.116;2023-01-29T03:28:16;-1.38;81.34
68648;SHT31;55632;51.962;16.116;2023-01-29T03:34:07;-1.32;81.46
68648;SHT31;55632;51.962;16.116;2023-01-29T03:39:09;-1.30;81.57
68648;SHT31;55632;51.962;16.116;2023-01-29T03:55:08;-1.14;81.57
68648;SHT31;55632;51.962;16.116;2023-01-29T04:00:41;-1.11;81.53
68648;SHT31;55632;51.962;16.116;2023-01-29T04:05:55;-1.07;81.49
68648;SHT31;55632;51.962;16.116;2023-01-29T04:11:11;-1.01;81.46
68648;SHT31;55632;51.962;16.116;2023-01-29T04:16:22;-0.99;81.37
68648;SHT31;55632;51.962;16.116;2023-01-29T04:21:41;-0.94;81.21
68648;SHT31;55632;51.962;16.116;2023-01-29T04:26:57;-0.90;81.14
68648;SHT31;55632;51.962;16.116;2023-01-29T04:37:19;-0.86;81.02
68648;SHT31;55632;51.962;16.116;2023-01-29T04:42:31;-0.82;80.97
68648;SHT31;55632;51.962;16.116;2023-01-29T04:47:59;-0.83;80.95
68648;SHT31;55632;51.962;16.116;2023-01-29T04:53:17;-0.80;80.92
68648;SHT31;55632;51.962;16.116;2023-01-29T04:58:33;-0.79;80.94
68648;SHT31;55632;51.962;16.116;2023-01-29T05:03:36;-0.77;80.93
68648;SHT31;55632;51.962;16.116;2023-01-29T05:08:40;-0.76;80.91
68648;SHT31;55632;51.962;16.116;2023-01-29T05:13:42;-0.73;80.79
68648;SHT31;55632;51.962;16.116;2023-01-29T05:18:42;-0.72;80.74
68648;SHT31;55632;51.962;16.116;2023-01-29T05:23:43;-0.72;80.72
68648;SHT31;55632;51.962;16.116;2023-01-29T05:28:52;-0.72;80.77
68648;SHT31;55632;51.962;16.116;2023-01-29T05:33:53;-0.69;80.71
68648;SHT31;55632;51.962;16.116;2023-01-29T05:38:55;-0.69;80.71
68648;SHT31;55632;51.962;16.116;2023-01-29T05:43:56;-0.69;80.74
68648;SHT31;55632;51.962;16.116;2023-01-29T05:48:56;-0.68;80.76
68648;SHT31;55632;51.962;16.116;2023-01-29T05:53:57;-0.69;80.81
68648;SHT31;55632;51.962;16.116;2023-01-29T05:58:58;-0.66;80.86
68648;SHT31;55632;51.962;16.116;2023-01-29T06:04:01;-0.65;80.81
68648;SHT31;55632;51.962;16.116;2023-01-29T06:09:05;-0.65;80.89
68648;SHT31;55632;51.962;16.116;2023-01-29T06:14:07;-0.68;80.91
68648;SHT31;55632;51.962;16.116;2023-01-29T06:19:07;-0.65;80.98
68648;SHT31;55632;51.962;16.116;2023-01-29T06:24:08;-0.64;81.01
68648;SHT31;55632;51.962;16.116;2023-01-29T06:29:09;-0.62;81.03
68648;SHT31;55632;51.962;16.116;2023-01-29T06:34:10;-0.58;81.00
68648;SHT31;55632;51.962;16.116;2023-01-29T06:39:10;-0.55;81.09
68648;SHT31;55632;51.962;16.116;2023-01-29T06:44:12;-0.57;81.23
68648;SHT31;55632;51.962;16.116;2023-01-29T06:49:13;-0.55;81.47
68648;SHT31;55632;51.962;16.116;2023-01-29T06:54:14;-0.55;81.61
68648;SHT31;55632;51.962;16.116;2023-01-29T06:59:14;-0.52;81.72
68648;SHT31;55632;51.962;16.116;2023-01-29T07:04:15;-0.48;81.92
68648;SHT31;55632;51.962;16.116;2023-01-29T07:09:16;-0.48;82.10
68648;SHT31;55632;51.962;16.116;2023-01-29T07:14:17;-0.45;82.21
68648;SHT31;55632;51.962;16.116;2023-01-29T07:19:18;-0.42;82.32
68648;SHT31;55632;51.962;16.116;2023-01-29T07:24:19;-0.37;82.39
68648;SHT31;55632;51.962;16.116;2023-01-29T07:29:20;-0.34;82.55
68648;SHT31;55632;51.962;16.116;2023-01-29T07:34:21;-0.30;82.63
68648;SHT31;55632;51.962;16.116;2023-01-29T07:39:22;-0.23;82.66
68648;SHT31;55632;51.962;16.116;2023-01-29T07:44:23;-0.21;82.54
68648;SHT31;55632;51.962;16.116;2023-01-29T07:49:23;-0.18;82.52
68648;SHT31;55632;51.962;16.116;2023-01-29T07:54:24;-0.13;82.32
68648;SHT31;55632;51.962;16.116;2023-01-29T07:59:25;-0.09;82.35
68648;SHT31;55632;51.962;16.116;2023-01-29T08:04:26;-0.05;82.29
68648;SHT31;55632;51.962;16.116;2023-01-29T08:09:27;0.01;82.24
68648;SHT31;55632;51.962;16.116;2023-01-29T08:14:28;0.08;82.10
68648;SHT31;55632;51.962;16.116;2023-01-29T08:19:28;0.17;82.03
68648;SHT31;55632;51.962;16.116;2023-01-29T08:24:29;0.28;81.93
68648;SHT31;55632;51.962;16.116;2023-01-29T08:29:30;0.33;81.77
68648;SHT31;55632;51.962;16.116;2023-01-29T08:34:31;0.39;81.60
68648;SHT31;55632;51.962;16.116;2023-01-29T08:39:31;0.44;81.44
68648;SHT31;55632;51.962;16.116;2023-01-29T08:44:32;0.49;81.46
68648;SHT31;55632;51.962;16.116;2023-01-29T08:49:33;0.57;81.32
68648;SHT31;55632;51.962;16.116;2023-01-29T08:54:34;0.62;81.18
68648;SHT31;55632;51.962;16.116;2023-01-29T08:59:35;0.66;81.13
68648;SHT31;55632;51.962;16.116;2023-01-29T09:04:36;0.72;81.10
68648;SHT31;55632;51.962;16.116;2023-01-29T09:09:36;0.77;80.88
68648;SHT31;55632;51.962;16.116;2023-01-29T09:14:37;0.80;80.87
68648;SHT31;55632;51.962;16.116;2023-01-29T09:19:38;0.87;80.82
68648;SHT31;55632;51.962;16.116;2023-01-29T09:24:39;0.90;80.86
68648;SHT31;55632;51.962;16.116;2023-01-29T09:29:40;0.90;80.88
68648;SHT31;55632;51.962;16.116;2023-01-29T09:34:41;0.91;80.90
68648;SHT31;55632;51.962;16.116;2023-01-29T09:39:42;0.90;81.09
68648;SHT31;55632;51.962;16.116;2023-01-29T09:45:05;0.90;81.20
68648;SHT31;55632;51.962;16.116;2023-01-29T09:55:28;0.90;81.50
68648;SHT31;55632;51.962;16.116;2023-01-29T10:06:24;0.88;81.97
68648;SHT31;55632;51.962;16.116;2023-01-29T10:27:39;0.81;82.63
68648;SHT31;55632;51.962;16.116;2023-01-29T10:32:41;0.81;82.79
68648;SHT31;55632;51.962;16.116;2023-01-29T10:37:42;0.84;82.91
68648;SHT31;55632;51.962;16.116;2023-01-29T10:42:48;0.84;83.08
68648;SHT31;55632;51.962;16.116;2023-01-29T10:58:33;0.97;83.25
68648;SHT31;55632;51.962;16.116;2023-01-29T11:03:36;0.97;83.32
68648;SHT31;55632;51.962;16.116;2023-01-29T11:08:53;0.98;83.40
68648;SHT31;55632;51.962;16.116;2023-01-29T11:14:01;1.04;83.43
68648;SHT31;55632;51.962;16.116;2023-01-29T11:19:06;1.09;83.47
68648;SHT31;55632;51.962;16.116;2023-01-29T11:24:13;1.12;83.51
68648;SHT31;55632;51.962;16.116;2023-01-29T11:34:29;1.15;83.52
68648;SHT31;55632;51.962;16.116;2023-01-29T11:39:33;1.19;83.60
68648;SHT31;55632;51.962;16.116;2023-01-29T11:44:39;1.15;83.76
68648;SHT31;55632;51.962;16.116;2023-01-29T11:49:49;1.16;83.66
68648;SHT31;55632;51.962;16.116;2023-01-29T11:54:57;1.16;83.77
68648;SHT31;55632;51.962;16.116;2023-01-29T12:00:06;1.19;83.88
68648;SHT31;55632;51.962;16.116;2023-01-29T12:05:19;1.24;84.04
68648;SHT31;55632;51.962;16.116;2023-01-29T12:10:32;1.24;84.20
68648;SHT31;55632;51.962;16.116;2023-01-29T12:15:34;1.26;84.28
68648;SHT31;55632;51.962;16.116;2023-01-29T12:20:40;1.31;84.38
68648;SHT31;55632;51.962;16.116;2023-01-29T12:36:30;1.40;84.98
68648;SHT31;55632;51.962;16.116;2023-01-29T12:41:43;1.42;84.85
68648;SHT31;55632;51.962;16.116;2023-01-29T12:46:51;1.33;85.02
68648;SHT31;55632;51.962;16.116;2023-01-29T12:57:24;1.33;85.39
68648;SHT31;55632;51.962;16.116;2023-01-29T13:02:36;1.35;85.56
68648;SHT31;55632;51.962;16.116;2023-01-29T13:07:44;1.38;85.78
68648;SHT31;55632;51.962;16.116;2023-01-29T13:13:05;1.40;85.92
68648;SHT31;55632;51.962;16.116;2023-01-29T13:18:31;1.46;86.08
68648;SHT31;55632;51.962;16.116;2023-01-29T13:23:54;1.47;86.03
68648;SHT31;55632;51.962;16.116;2023-01-29T13:28:57;1.51;86.12
68648;SHT31;55632;51.962;16.116;2023-01-29T13:34:15;1.51;86.10
68648;SHT31;55632;51.962;16.116;2023-01-29T13:39:30;1.51;86.09
68648;SHT31;55632;51.962;16.116;2023-01-29T13:44:34;1.49;86.20
68648;SHT31;55632;51.962;16.116;2023-01-29T13:49:40;1.47;86.23
68648;SHT31;55632;51.962;16.116;2023-01-29T13:54:54;1.46;86.33
68648;SHT31;55632;51.962;16.116;2023-01-29T13:59:59;1.46;86.42
68648;SHT31;55632;51.962;16.116;2023-01-29T14:10:32;1.47;86.52
68648;SHT31;55632;51.962;16.116;2023-01-29T14:15:37;1.47;86.56
68648;SHT31;55632;51.962;16.116;2023-01-29T14:25:48;1.44;86.72
68648;SHT31;55632;51.962;16.116;2023-01-29T14:30:50;1.46;86.72
68648;SHT31;55632;51.962;16.116;2023-01-29T14:35:52;1.43;86.77
68648;SHT31;55632;51.962;16.116;2023-01-29T14:41:11;1.40;86.81
68648;SHT31;55632;51.962;16.116;2023-01-29T14:46:43;1.42;86.86
68648;SHT31;55632;51.962;16.116;2023-01-29T14:51:44;1.38;86.92
68648;SHT31;55632;51.962;16.116;2023-01-29T14:56:57;1.33;86.99
68648;SHT31;55632;51.962;16.116;2023-01-29T15:02:09;1.31;87.03
68648;SHT31;55632;51.962;16.116;2023-01-29T15:07:33;1.26;87.17
68648;SHT31;55632;51.962;16.116;2023-01-29T15:12:50;1.24;87.28
68648;SHT31;55632;51.962;16.116;2023-01-29T15:18:00;1.19;87.36
68648;SHT31;55632;51.962;16.116;2023-01-29T15:23:27;1.18;87.52
68648;SHT31;55632;51.962;16.116;2023-01-29T15:28:29;1.15;87.56
68648;SHT31;55632;51.962;16.116;2023-01-29T15:33:31;1.11;87.67
68648;SHT31;55632;51.962;16.116;2023-01-29T15:38:35;1.12;87.73
68648;SHT31;55632;51.962;16.116;2023-01-29T15:43:42;1.05;87.80
68648;SHT31;55632;51.962;16.116;2023-01-29T15:48:44;1.04;87.87
68648;SHT31;55632;51.962;16.116;2023-01-29T15:54:10;0.98;87.92
68648;SHT31;55632;51.962;16.116;2023-01-29T15:59:22;0.94;87.95
68648;SHT31;55632;51.962;16.116;2023-01-29T16:04:26;0.92;88.02
68648;SHT31;55632;51.962;16.116;2023-01-29T16:09:28;0.92;88.04
68648;SHT31;55632;51.962;16.116;2023-01-29T16:14:29;0.87;88.16
68648;SHT31;55632;51.962;16.116;2023-01-29T16:19:31;0.90;88.15
68648;SHT31;55632;51.962;16.116;2023-01-29T16:24:35;0.88;88.19
68648;SHT31;55632;51.962;16.116;2023-01-29T16:29:36;0.87;88.27
68648;SHT31;55632;51.962;16.116;2023-01-29T16:34:45;0.90;88.20
68648;SHT31;55632;51.962;16.116;2023-01-29T16:39:52;0.92;88.25
68648;SHT31;55632;51.962;16.116;2023-01-29T16:55:31;0.97;88.27
68648;SHT31;55632;51.962;16.116;2023-01-29T17:00:34;0.98;88.28
68648;SHT31;55632;51.962;16.116;2023-01-29T17:05:35;0.94;88.29
68648;SHT31;55632;51.962;16.116;2023-01-29T17:10:37;0.92;88.35
68648;SHT31;55632;51.962;16.116;2023-01-29T17:20:42;0.92;88.50
68648;SHT31;55632;51.962;16.116;2023-01-29T17:25:44;0.94;88.56
68648;SHT31;55632;51.962;16.116;2023-01-29T17:30:45;0.97;88.58
68648;SHT31;55632;51.962;16.116;2023-01-29T17:35:46;0.94;88.58
68648;SHT31;55632;51.962;16.116;2023-01-29T17:41:01;0.94;88.57
68648;SHT31;55632;51.962;16.116;2023-01-29T17:46:03;0.92;88.63
68648;SHT31;55632;51.962;16.116;2023-01-29T17:51:04;0.94;88.74
68648;SHT31;55632;51.962;16.116;2023-01-29T17:56:05;0.97;88.68
68648;SHT31;55632;51.962;16.116;2023-01-29T18:01:06;0.98;88.64
68648;SHT31;55632;51.962;16.116;2023-01-29T18:06:08;1.01;88.58
68648;SHT31;55632;51.962;16.116;2023-01-29T18:11:11;1.04;88.52
68648;SHT31;55632;51.962;16.116;2023-01-29T18:16:12;1.04;88.46
68648;SHT31;55632;51.962;16.116;2023-01-29T18:21:13;1.05;88.43
68648;SHT31;55632;51.962;16.116;2023-01-29T18:26:15;1.07;88.39
68648;SHT31;55632;51.962;16.116;2023-01-29T18:31:16;1.07;88.29
68648;SHT31;55632;51.962;16.116;2023-01-29T18:36:16;1.09;88.15
68648;SHT31;55632;51.962;16.116;2023-01-29T18:41:17;1.11;88.04
68648;SHT31;55632;51.962;16.116;2023-01-29T18:46:19;1.14;87.98
68648;SHT31;55632;51.962;16.116;2023-01-29T18:51:20;1.14;87.78
68648;SHT31;55632;51.962;16.116;2023-01-29T18:56:24;1.15;87.64
68648;SHT31;55632;51.962;16.116;2023-01-29T19:01:26;1.15;87.56
68648;SHT31;55632;51.962;16.116;2023-01-29T19:06:27;1.15;87.39
68648;SHT31;55632;51.962;16.116;2023-01-29T19:11:28;1.16;87.16
68648;SHT31;55632;51.962;16.116;2023-01-29T19:16:29;1.15;87.17
68648;SHT31;55632;51.962;16.116;2023-01-29T19:21:30;1.18;87.06
68648;SHT31;55632;51.962;16.116;2023-01-29T19:26:35;1.16;86.98
68648;SHT31;55632;51.962;16.116;2023-01-29T19:31:36;1.15;87.00
68648;SHT31;55632;51.962;16.116;2023-01-29T19:36:38;1.14;87.02
68648;SHT31;55632;51.962;16.116;2023-01-29T19:41:39;1.16;86.84
68648;SHT31;55632;51.962;16.116;2023-01-29T19:46:41;1.19;86.76
68648;SHT31;55632;51.962;16.116;2023-01-29T19:51:44;1.15;86.63
68648;SHT31;55632;51.962;16.116;2023-01-29T19:56:45;1.15;86.55
68648;SHT31;55632;51.962;16.116;2023-01-29T20:01:46;1.18;86.46
68648;SHT31;55632;51.962;16.116;2023-01-29T20:06:47;1.21;86.43
68648;SHT31;55632;51.962;16.116;2023-01-29T20:11:47;1.18;86.32
68648;SHT31;55632;51.962;16.116;2023-01-29T20:16:48;1.19;86.22
68648;SHT31;55632;51.962;16.116;2023-01-29T20:21:49;1.21;86.02
68648;SHT31;55632;51.962;16.116;2023-01-29T20:26:50;1.21;86.03
68648;SHT31;55632;51.962;16.116;2023-01-29T20:31:51;1.21;85.98
68648;SHT31;55632;51.962;16.116;2023-01-29T20:36:56;1.24;85.90
68648;SHT31;55632;51.962;16.116;2023-01-29T20:42:17;1.24;85.69
68648;SHT31;55632;51.962;16.116;2023-01-29T20:47:18;1.22;85.61
68648;SHT31;55632;51.962;16.116;2023-01-29T20:52:19;1.22;85.59
68648;SHT31;55632;51.962;16.116;2023-01-29T20:57:19;1.21;85.43
68648;SHT31;55632;51.962;16.116;2023-01-29T21:02:20;1.21;85.32
68648;SHT31;55632;51.962;16.116;2023-01-29T21:07:23;1.16;85.28
68648;SHT31;55632;51.962;16.116;2023-01-29T21:12:24;1.16;85.13
68648;SHT31;55632;51.962;16.116;2023-01-29T21:17:25;1.16;85.13
68648;SHT31;55632;51.962;16.116;2023-01-29T21:22:26;1.14;85.12
68648;SHT31;55632;51.962;16.116;2023-01-29T21:27:27;1.15;85.06
68648;SHT31;55632;51.962;16.116;2023-01-29T21:32:28;1.12;84.99
68648;SHT31;55632;51.962;16.116;2023-01-29T21:37:29;1.11;84.86
68648;SHT31;55632;51.962;16.116;2023-01-29T21:42:31;1.11;84.73
68648;SHT31;55632;51.962;16.116;2023-01-29T21:47:51;1.07;84.73
68648;SHT31;55632;51.962;16.116;2023-01-29T21:52:52;1.04;84.52
68648;SHT31;55632;51.962;16.116;2023-01-29T21:58:00;1.04;84.56
68648;SHT31;55632;51.962;16.116;2023-01-29T22:03:01;1.02;84.48
68648;SHT31;55632;51.962;16.116;2023-01-29T22:08:02;0.99;84.46
68648;SHT31;55632;51.962;16.116;2023-01-29T22:13:04;0.98;84.43
68648;SHT31;55632;51.962;16.116;2023-01-29T22:18:05;0.95;84.50
68648;SHT31;55632;51.962;16.116;2023-01-29T22:23:06;0.97;84.44
68648;SHT31;55632;51.962;16.116;2023-01-29T22:28:07;0.98;84.38
68648;SHT31;55632;51.962;16.116;2023-01-29T22:33:08;0.95;84.09
68648;SHT31;55632;51.962;16.116;2023-01-29T22:38:09;0.95;84.10
68648;SHT31;55632;51.962;16.116;2023-01-29T22:43:10;0.94;84.19
68648;SHT31;55632;51.962;16.116;2023-01-29T22:48:12;0.92;84.18
68648;SHT31;55632;51.962;16.116;2023-01-29T22:53:12;0.95;83.93
68648;SHT31;55632;51.962;16.116;2023-01-29T22:58:14;0.88;83.88
68648;SHT31;55632;51.962;16.116;2023-01-29T23:03:18;0.88;83.88
68648;SHT31;55632;51.962;16.116;2023-01-29T23:08:19;0.88;83.88
68648;SHT31;55632;51.962;16.116;2023-01-29T23:13:20;0.87;83.74
68648;SHT31;55632;51.962;16.116;2023-01-29T23:18:21;0.88;83.63
68648;SHT31;55632;51.962;16.116;2023-01-29T23:23:22;0.85;83.65
68648;SHT31;55632;51.962;16.116;2023-01-29T23:28:23;0.91;83.41
68648;SHT31;55632;51.962;16.116;2023-01-29T23:33:25;0.90;83.21
68648;SHT31;55632;51.962;16.116;2023-01-29T23:38:26;0.91;83.16
68648;SHT31;55632;51.962;16.116;2023-01-29T23:43:28;0.94;83.13
68648;SHT31;55632;51.962;16.116;2023-01-29T23:48:29;0.94;82.98
68648;SHT31;55632;51.962;16.116;2023-01-29T23:53:30;0.92;82.78
68648;SHT31;55632;51.962;16.116;2023-01-29T23:58:31;0.95;82.68
